MST,Max TemperatureF,Mean TemperatureF,Min TemperatureF,Max Dew PointF,MeanDew PointF,Min DewpointF,Max Humidity, Mean Humidity, Min Humidity, Max Sea Level PressureIn, Mean Sea Level PressureIn, Min Sea Level PressureIn, Max VisibilityMiles, Mean VisibilityMiles, Min VisibilityMiles, Max Wind SpeedMPH, Mean Wind SpeedMPH, Max Gust SpeedMPH,PrecipitationIn, CloudCover, Events, WindDirDegrees
2013-1-1,29,21,13,24,19,11,92,78,63,30.23,30.13,30.01,10,6,1,26,16,32,0.04,7,Snow,281
2013-1-2,26,15,3,21,12,2,92,71,50,30.46,30.29,30.10,10,10,7,30,15,36,T,5,,305
2013-1-3,30,19,7,14,8,2,91,65,39,30.42,30.33,30.23,10,10,10,17,9,20,0.00,0,,226
2013-1-4,37,29,21,18,11,5,68,53,38,30.20,30.16,30.11,10,10,10,16,7,18,0.00,0,,242
2013-1-5,33,25,17,21,15,10,74,65,56,30.35,30.28,30.16,10,10,10,20,12,23,0.00,0,,256
2013-1-6,39,28,17,21,16,8,81,61,40,30.22,29.98,29.86,10,10,10,38,15,45,0.00,1,,205
2013-1-7,35,24,12,22,17,11,84,68,51,30.04,29.89,29.70,10,10,10,18,5,25,0.00,2,,200
2013-1-8,40,28,16,24,20,15,92,71,50,30.17,29.95,29.71,10,10,10,28,9,37,0.00,3,,264
2013-1-9,48,36,23,29,23,18,74,56,38,30.12,29.98,29.75,10,10,10,39,24,53,0.00,0,,208
2013-1-10,51,38,25,27,22,17,100,65,29,29.73,29.52,29.42,10,8,0,40,21,51,0.00,2,Fog,240
2013-1-11,25,14,2,23,6,-3,100,87,73,30.08,29.68,29.50,10,4,1,38,24,47,0.03,8,Snow,327
2013-1-12,8,5,1,3,0,-2,95,88,80,30.29,30.12,29.84,10,4,1,32,11,40,0.05,8,Snow,302
2013-1-13,12,6,-1,4,1,-3,91,79,67,30.32,30.25,30.01,10,10,5,18,12,21,T,5,Snow,268
2013-1-14,14,8,1,2,-2,-6,76,67,57,30.32,30.22,29.95,10,10,10,21,14,24,0.00,4,,230
2013-1-15,35,23,11,27,19,-1,88,73,58,30.14,30.08,29.94,10,8,2,26,16,30,0.03,8,Snow,266
2013-1-16,40,33,25,23,20,16,69,57,44,30.36,30.21,30.09,10,10,10,22,14,25,0.00,2,,276
2013-1-17,41,33,24,24,18,15,63,55,47,30.43,30.29,30.08,10,10,10,22,14,25,0.00,0,,229
2013-1-18,49,40,31,26,20,15,52,45,37,30.06,29.99,29.93,10,10,10,26,14,30,0.00,2,,241
2013-1-19,42,32,21,25,20,16,96,66,36,30.27,30.16,29.99,10,10,10,22,11,29,0.00,0,,267
2013-1-20,35,24,12,20,16,12,92,70,47,30.48,30.34,30.09,10,9,4,23,11,28,T,6,Snow,317
2013-1-21,37,23,9,19,15,6,100,72,44,30.37,30.20,30.05,10,10,7,15,4,17,0.00,3,,240
2013-1-22,46,35,23,14,13,10,63,44,25,30.14,30.10,30.04,10,10,10,17,9,22,0.00,0,,259
2013-1-23,33,24,14,21,16,11,88,68,47,30.24,30.15,30.05,10,10,10,28,5,33,0.00,0,,134
2013-1-24,52,36,20,24,18,14,91,59,26,30.15,30.00,29.89,10,10,10,22,8,28,0.00,1,,220
2013-1-25,51,35,19,29,22,16,92,60,27,30.18,30.09,29.95,10,10,10,15,6,18,0.00,0,,162
2013-1-26,53,35,17,27,23,16,92,60,28,29.96,29.85,29.69,10,10,10,15,6,17,0.00,0,,187
2013-1-27,36,32,28,32,29,26,100,85,70,29.82,29.73,29.62,10,7,0,20,10,23,T,6,Fog,346
2013-1-28,30,24,18,27,25,16,100,92,84,29.87,29.78,29.71,10,7,2,15,8,18,0.04,8,Snow,339
2013-1-29,29,14,-2,21,12,-6,95,79,62,30.22,29.92,29.75,10,7,1,30,13,35,T,6,Snow,311
2013-1-30,30,13,-4,25,18,-2,92,80,67,30.12,29.86,29.73,10,4,1,25,13,31,0.11,8,Snow,291
2013-1-31,33,17,1,25,6,-2,95,84,72,30.34,30.13,29.90,10,4,1,20,11,25,0.11,8,Snow,303